Time;durP1;ratioP1;P1;durP2;ratioP2;P2;SDS_P1;SDS_P2;PMS_P1;PMS_P2;Temp;Humidity;BMP_temperature;BMP_pressure;BME280_temperature;BME280_humidity;BME280_pressure;Samples;Min_cycle;Max_cycle;Signal;HPM_P1;HPM_P2
2022/12/27 00:01:11;;;;;;;236.73;100.63;;;3.00;99.90;;;;;;5051572;28;20206;-50
2022/12/27 00:03:40;;;;;;;70.80;45.70;;;3.00;99.90;;;;;;5051277;28;20788;-51
2022/12/27 00:06:10;;;;;;;135.60;70.73;;;2.90;99.90;;;;;;5051401;28;20262;-51
2022/12/27 00:08:39;;;;;;;128.13;114.53;;;2.90;99.90;;;;;;5050628;28;20319;-52
2022/12/27 00:11:09;;;;;;;69.17;55.50;;;2.90;99.90;;;;;;5051132;28;20222;-52
2022/12/27 00:13:37;;;;;;;61.40;34.90;;;2.80;99.90;;;;;;5051410;28;20234;-50
2022/12/27 00:16:06;;;;;;;95.97;75.70;;;2.80;99.90;;;;;;5051360;28;20213;-51
2022/12/27 00:18:35;;;;;;;85.37;53.40;;;2.80;99.90;;;;;;5051561;28;20206;-52
2022/12/27 00:21:05;;;;;;;109.93;70.17;;;2.70;99.90;;;;;;5050955;28;20221;-51
2022/12/27 00:23:35;;;;;;;95.80;70.20;;;2.70;99.90;;;;;;5051150;28;20274;-51
2022/12/27 00:26:06;;;;;;;105.47;69.93;;;2.70;99.90;;;;;;5051374;28;20304;-51
2022/12/27 00:28:35;;;;;;;112.97;70.47;;;2.70;99.90;;;;;;5050152;28;20242;-51
2022/12/27 00:31:05;;;;;;;64.73;41.40;;;2.70;99.90;;;;;;5050086;28;20361;-51
2022/12/27 00:33:35;;;;;;;73.77;63.07;;;2.70;99.90;;;;;;5051006;28;20235;-51
2022/12/27 00:36:06;;;;;;;104.87;70.90;;;2.70;99.90;;;;;;5050623;28;20291;-51
2022/12/27 00:38:35;;;;;;;163.90;123.63;;;2.70;99.90;;;;;;5051037;28;20208;-52
2022/12/27 00:41:05;;;;;;;99.77;65.40;;;2.60;99.90;;;;;;5050952;28;20266;-51
2022/12/27 00:43:33;;;;;;;123.33;99.07;;;2.60;99.90;;;;;;5036732;28;20313;-51
2022/12/27 00:46:02;;;;;;;113.83;68.90;;;2.70;99.90;;;;;;5050669;28;20237;-52
2022/12/27 00:48:30;;;;;;;87.97;75.93;;;2.70;99.90;;;;;;5050614;28;20221;-52
2022/12/27 00:50:59;;;;;;;89.40;54.00;;;2.60;99.90;;;;;;5050626;28;20632;-52
2022/12/27 00:53:28;;;;;;;150.77;94.37;;;2.60;99.90;;;;;;5050110;28;20237;-51
2022/12/27 00:55:56;;;;;;;135.57;84.60;;;2.60;99.90;;;;;;5050280;28;20210;-52
2022/12/27 00:58:26;;;;;;;97.97;85.30;;;2.60;99.90;;;;;;5050301;28;20298;-52
2022/12/27 01:00:54;;;;;;;73.63;49.63;;;2.60;99.90;;;;;;5048925;28;20295;-52
2022/12/27 01:03:22;;;;;;;347.30;124.07;;;2.50;99.90;;;;;;5049940;28;20603;-51
2022/12/27 01:05:51;;;;;;;112.30;71.77;;;2.40;99.90;;;;;;5050368;28;20252;-51
2022/12/27 01:08:19;;;;;;;52.20;35.00;;;2.40;99.90;;;;;;5050114;28;20220;-52
2022/12/27 01:10:47;;;;;;;121.27;95.03;;;2.40;99.90;;;;;;5050377;28;20206;-51
2022/12/27 01:13:15;;;;;;;96.33;72.77;;;2.40;99.90;;;;;;5049836;28;20222;-52
2022/12/27 01:15:44;;;;;;;69.33;51.60;;;2.40;99.90;;;;;;5050186;28;20283;-52
2022/12/27 01:18:12;;;;;;;58.77;48.73;;;2.30;99.90;;;;;;5050343;28;20292;-50
2022/12/27 01:20:40;;;;;;;168.13;104.77;;;2.30;99.90;;;;;;5049972;28;20206;-52
2022/12/27 01:23:09;;;;;;;87.63;74.93;;;2.30;99.90;;;;;;5049839;28;20205;-51
2022/12/27 01:25:37;;;;;;;121.90;98.07;;;2.30;99.90;;;;;;5049836;28;20284;-52
2022/12/27 01:28:06;;;;;;;97.20;85.23;;;2.30;99.90;;;;;;5050027;28;20261;-51
2022/12/27 01:30:34;;;;;;;106.23;95.37;;;2.30;99.90;;;;;;5049640;28;20683;-51
2022/12/27 01:33:03;;;;;;;89.87;71.40;;;2.30;99.90;;;;;;5049258;28;20276;-51
2022/12/27 01:35:31;;;;;;;72.43;43.90;;;2.20;99.90;;;;;;5049608;28;20206;-50
2022/12/27 01:38:00;;;;;;;99.77;49.97;;;2.20;99.90;;;;;;5047011;28;20214;-52
2022/12/27 01:40:28;;;;;;;97.60;82.10;;;2.20;99.90;;;;;;5049147;28;20210;-51
2022/12/27 01:42:55;;;;;;;83.43;67.37;;;2.20;99.90;;;;;;5049453;28;20203;-51
2022/12/27 01:45:25;;;;;;;49.77;39.00;;;2.30;99.90;;;;;;5049165;28;20637;-52
2022/12/27 01:47:59;;;;;;;150.20;87.03;;;2.30;99.90;;;;;;5048753;28;20837;-50
2022/12/27 01:50:33;;;;;;;44.33;31.67;;;2.40;99.90;;;;;;5048882;28;20233;-51
2022/12/27 01:53:08;;;;;;;103.33;61.43;;;2.60;99.90;;;;;;5048892;28;20228;-51
2022/12/27 01:55:41;;;;;;;101.37;53.97;;;2.60;99.90;;;;;;5049278;28;20221;-52
2022/12/27 01:58:14;;;;;;;92.93;81.80;;;2.60;99.90;;;;;;5049342;28;20201;-51
2022/12/27 02:00:45;;;;;;;99.83;85.10;;;2.70;99.90;;;;;;5049202;28;20203;-51
2022/12/27 02:03:18;;;;;;;91.90;66.40;;;2.60;99.90;;;;;;5049108;28;20224;-52
2022/12/27 02:05:48;;;;;;;49.03;42.23;;;2.60;99.90;;;;;;5049600;28;20208;-51
2022/12/27 02:08:27;;;;;;;81.10;55.57;;;2.60;99.90;;;;;;5039817;28;20225;-51
2022/12/27 02:10:57;;;;;;;99.97;44.10;;;2.60;99.90;;;;;;5047004;28;20316;-52
2022/12/27 02:13:25;;;;;;;125.00;85.47;;;2.50;99.90;;;;;;5047840;28;20968;-50
2022/12/27 02:15:53;;;;;;;100.00;67.20;;;2.50;99.90;;;;;;5048590;28;20288;-49
2022/12/27 02:18:21;;;;;;;60.87;44.50;;;2.40;99.90;;;;;;5048692;28;20205;-49
2022/12/27 02:21:26;;;;;;;364.73;115.20;;;2.50;99.90;;;;;;5049200;28;20220;-51
2022/12/27 02:24:17;;;;;;;49.90;43.97;;;2.60;99.90;;;;;;5046821;28;20744;-50
2022/12/27 02:26:52;;;;;;;56.80;34.50;;;2.60;99.90;;;;;;5048927;28;20241;-52
2022/12/27 02:29:50;;;;;;;48.57;35.60;;;2.70;99.90;;;;;;5049002;28;20286;-52
2022/12/27 02:32:23;;;;;;;74.53;51.57;;;2.80;99.90;;;;;;5052944;28;20223;-52
2022/12/27 02:35:00;;;;;;;72.33;55.27;;;2.80;99.90;;;;;;5055509;28;20310;-51
2022/12/27 02:37:31;;;;;;;107.43;85.37;;;2.90;99.90;;;;;;5055669;28;20201;-51
2022/12/27 02:54:28;;;;;;;1739.03;448.93;;;3.00;99.90;;;;;;5052668;28;20766;-52
2022/12/27 02:57:09;;;;;;;64.83;54.03;;;3.10;99.90;;;;;;5054991;28;20290;-51
2022/12/27 03:03:22;;;;;;;100.53;87.60;;;3.10;99.90;;;;;;5054244;28;20764;-52
2022/12/27 03:15:53;;;;;;;106.80;64.33;;;3.10;99.90;;;;;;5050494;28;20275;-52
2022/12/27 03:17:56;;;;;;;100.37;72.20;;;3.10;99.90;;;;;;5054847;28;20715;-51
2022/12/27 03:25:59;;;;;;;73.13;54.73;;;3.20;99.90;;;;;;5055473;28;20240;-51
2022/12/27 03:39:54;;;;;;;80.73;56.20;;;2.90;99.90;;;;;;5055386;28;20298;-52
2022/12/27 03:45:11;;;;;;;228.90;111.40;;;2.90;99.90;;;;;;5050948;28;20252;-52
2022/12/27 03:47:46;;;;;;;137.47;97.20;;;2.80;99.90;;;;;;5050497;28;20688;-52
2022/12/27 03:50:21;;;;;;;111.43;79.67;;;2.80;99.90;;;;;;5051896;28;20646;-52
2022/12/27 03:52:53;;;;;;;96.10;85.53;;;2.90;99.90;;;;;;5051448;28;20262;-52
2022/12/27 03:55:21;;;;;;;113.17;87.03;;;2.90;99.90;;;;;;5050757;28;20239;-51
2022/12/27 03:57:53;;;;;;;55.73;41.80;;;2.90;99.90;;;;;;5051644;28;20285;-51
2022/12/27 04:00:21;;;;;;;66.93;42.57;;;3.00;99.90;;;;;;5051467;28;20299;-52
2022/12/27 04:02:49;;;;;;;58.30;38.70;;;3.00;99.90;;;;;;5051198;28;20237;-52
2022/12/27 04:05:19;;;;;;;47.77;36.90;;;3.00;99.90;;;;;;5047930;28;20223;-51
2022/12/27 04:35:24;;;;;;;137.23;88.87;;;3.10;99.90;;;;;;5050554;28;20267;-51
2022/12/27 04:37:54;;;;;;;101.63;43.57;;;3.10;99.90;;;;;;5050389;28;20217;-51
2022/12/27 04:57:02;;;;;;;679.07;164.47;;;3.10;99.90;;;;;;5050340;28;20259;-52
2022/12/27 05:02:18;;;;;;;80.33;68.30;;;3.10;99.90;;;;;;5050383;28;20236;-51
2022/12/27 05:04:47;;;;;;;329.83;77.83;;;3.20;99.90;;;;;;5049507;28;20227;-52
2022/12/27 05:15:36;;;;;;;106.77;79.37;;;3.10;99.90;;;;;;5050304;28;20233;-52
2022/12/27 05:18:04;;;;;;;224.43;109.63;;;3.10;99.90;;;;;;5050057;28;20208;-52
2022/12/27 05:20:34;;;;;;;92.03;80.37;;;3.10;99.90;;;;;;5049904;28;20298;-52
2022/12/27 05:25:49;;;;;;;237.37;104.00;;;3.10;99.90;;;;;;5050178;28;20294;-51
2022/12/27 05:28:17;;;;;;;98.87;66.87;;;3.10;99.90;;;;;;5049663;28;20209;-52
2022/12/27 05:30:46;;;;;;;296.10;83.63;;;3.10;99.90;;;;;;5050195;28;20282;-51
2022/12/27 05:33:14;;;;;;;79.30;44.70;;;3.10;99.90;;;;;;5049639;28;20249;-51
2022/12/27 05:35:42;;;;;;;517.90;124.47;;;3.00;99.90;;;;;;5049263;28;20298;-50
2022/12/27 05:38:10;;;;;;;432.83;124.77;;;3.10;99.90;;;;;;5049675;28;20226;-52
2022/12/27 05:40:38;;;;;;;179.33;101.87;;;3.10;99.90;;;;;;5048889;28;20294;-52
2022/12/27 05:43:07;;;;;;;486.10;137.23;;;3.10;99.90;;;;;;5049465;28;20240;-51
2022/12/27 05:45:36;;;;;;;260.23;65.47;;;3.10;99.90;;;;;;5049418;28;20611;-52
2022/12/27 05:48:04;;;;;;;211.00;81.90;;;3.10;99.90;;;;;;5049595;28;20840;-51
2022/12/27 05:50:32;;;;;;;740.53;147.43;;;3.10;99.90;;;;;;5049565;28;20210;-52
2022/12/27 05:53:00;;;;;;;77.57;51.27;;;3.20;99.90;;;;;;5048920;28;20293;-52
2022/12/27 05:55:28;;;;;;;135.30;63.87;;;3.20;99.90;;;;;;5049068;28;20210;-52
2022/12/27 05:57:56;;;;;;;81.97;42.67;;;3.30;99.90;;;;;;5047640;28;20206;-52
2022/12/27 06:00:26;;;;;;;48.20;35.87;;;3.30;99.90;;;;;;5048976;28;20310;-53
2022/12/27 06:02:54;;;;;;;54.43;37.80;;;3.30;99.90;;;;;;5048925;28;20202;-52
2022/12/27 06:05:22;;;;;;;144.60;70.27;;;3.30;99.90;;;;;;5049470;28;20213;-51
2022/12/27 06:07:50;;;;;;;174.97;73.30;;;3.30;99.90;;;;;;5048324;28;20779;-51
2022/12/27 06:10:18;;;;;;;152.67;81.47;;;3.40;99.90;;;;;;5048768;28;20237;-52
2022/12/27 06:12:46;;;;;;;51.47;37.30;;;3.40;99.90;;;;;;5049234;28;20313;-52
2022/12/27 06:15:15;;;;;;;48.43;38.57;;;3.40;99.90;;;;;;5048480;28;20237;-52
2022/12/27 06:17:44;;;;;;;123.07;45.40;;;3.50;99.90;;;;;;5048932;28;20235;-52
2022/12/27 06:20:12;;;;;;;594.80;98.43;;;3.50;99.90;;;;;;5049051;28;20209;-52
2022/12/27 06:22:40;;;;;;;346.83;115.37;;;3.50;99.90;;;;;;5049319;28;20207;-51
2022/12/27 06:25:09;;;;;;;357.83;93.73;;;3.50;99.90;;;;;;5049010;28;20227;-51
2022/12/27 06:27:41;;;;;;;176.63;54.70;;;3.40;99.90;;;;;;5049105;28;20219;-51
2022/12/27 06:30:11;;;;;;;396.87;107.63;;;3.40;99.90;;;;;;5048886;28;20261;-51
2022/12/27 06:32:39;;;;;;;380.80;84.53;;;3.40;99.90;;;;;;5048981;28;20218;-51
2022/12/27 06:35:10;;;;;;;161.60;58.93;;;3.40;99.90;;;;;;5048194;28;20237;-52
2022/12/27 06:37:38;;;;;;;121.33;76.30;;;3.40;99.90;;;;;;5048293;28;20209;-52
2022/12/27 06:40:07;;;;;;;63.47;27.93;;;3.50;99.90;;;;;;5047034;28;20279;-51
2022/12/27 06:42:35;;;;;;;318.60;102.57;;;3.50;99.90;;;;;;5041940;28;20275;-53
2022/12/27 06:45:05;;;;;;;307.00;100.47;;;3.50;99.90;;;;;;5042786;28;20286;-52
2022/12/27 06:47:33;;;;;;;321.63;111.07;;;3.50;99.90;;;;;;5044632;28;20207;-52
2022/12/27 06:50:01;;;;;;;210.50;61.50;;;3.50;99.90;;;;;;5047964;28;20210;-51
2022/12/27 06:52:30;;;;;;;117.37;53.07;;;3.50;99.90;;;;;;5048019;28;20247;-52
2022/12/27 06:54:59;;;;;;;201.13;81.73;;;3.60;99.90;;;;;;5048428;28;20297;-52
2022/12/27 06:57:27;;;;;;;447.53;94.17;;;3.60;99.90;;;;;;5044684;28;20726;-52
2022/12/27 06:59:55;;;;;;;286.93;76.90;;;3.60;99.90;;;;;;5037277;28;20290;-52
2022/12/27 07:02:23;;;;;;;252.83;82.70;;;3.60;99.90;;;;;;5047748;28;20235;-52
2022/12/27 07:04:51;;;;;;;572.73;109.30;;;3.70;99.90;;;;;;5048497;28;20279;-53
2022/12/27 07:07:19;;;;;;;102.93;40.70;;;3.70;99.90;;;;;;5047984;28;20350;-52
2022/12/27 07:09:48;;;;;;;332.37;80.67;;;3.80;99.90;;;;;;5048568;28;20208;-52
2022/12/27 07:12:17;;;;;;;770.50;163.90;;;3.80;99.90;;;;;;5047992;28;20258;-52
2022/12/27 07:14:45;;;;;;;152.00;56.37;;;3.80;99.90;;;;;;5038108;28;20226;-52
2022/12/27 07:17:13;;;;;;;392.37;84.40;;;3.80;99.90;;;;;;5040332;28;20217;-52
2022/12/27 07:19:41;;;;;;;101.63;59.63;;;3.80;99.90;;;;;;5046516;28;20256;-51
2022/12/27 07:22:09;;;;;;;44.77;31.07;;;3.90;99.90;;;;;;5050556;28;20214;-52
2022/12/27 07:24:37;;;;;;;217.97;65.27;;;3.90;99.90;;;;;;5051858;28;20885;-52
2022/12/27 07:27:07;;;;;;;411.70;90.80;;;3.90;99.90;;;;;;5051040;28;20205;-51
2022/12/27 07:29:35;;;;;;;44.83;28.43;;;3.90;99.90;;;;;;5051550;28;20242;-51
2022/12/27 07:32:10;;;;;;;51.37;21.67;;;3.90;99.90;;;;;;5051962;28;20202;-51
2022/12/27 07:34:38;;;;;;;316.40;90.63;;;4.00;99.90;;;;;;5050341;28;20268;-52
2022/12/27 07:37:07;;;;;;;269.63;95.57;;;4.00;99.90;;;;;;5051299;28;20209;-52
2022/12/27 07:39:35;;;;;;;477.17;89.23;;;4.00;99.90;;;;;;5051083;28;20211;-52
2022/12/27 07:42:03;;;;;;;282.57;86.50;;;4.00;99.90;;;;;;5051118;28;20296;-52
2022/12/27 07:44:37;;;;;;;49.67;34.43;;;4.10;99.90;;;;;;5032779;28;20225;-52
2022/12/27 07:47:06;;;;;;;24.13;18.43;;;4.10;99.90;;;;;;5038819;28;20697;-52
2022/12/27 07:49:34;;;;;;;159.33;45.57;;;4.10;99.90;;;;;;5039570;28;20265;-51
2022/12/27 07:52:02;;;;;;;131.27;74.27;;;4.10;99.90;;;;;;5034565;28;20940;-52
2022/12/27 07:54:30;;;;;;;135.07;62.00;;;4.10;99.90;;;;;;5037901;28;20333;-53
2022/12/27 07:56:58;;;;;;;96.17;41.67;;;4.10;99.90;;;;;;5048759;28;20302;-53
2022/12/27 07:59:27;;;;;;;30.50;19.03;;;4.10;99.90;;;;;;5044799;28;20212;-52
2022/12/27 08:02:05;;;;;;;263.50;105.43;;;4.10;99.90;;;;;;5037124;28;20294;-52
2022/12/27 08:04:36;;;;;;;130.57;66.17;;;4.10;99.90;;;;;;5049589;28;20233;-53
2022/12/27 08:07:09;;;;;;;36.37;25.93;;;4.20;99.90;;;;;;5050622;28;20219;-52
2022/12/27 08:09:41;;;;;;;75.97;33.13;;;4.20;99.90;;;;;;5039088;28;20252;-52
2022/12/27 08:12:12;;;;;;;121.57;49.57;;;4.20;99.90;;;;;;5051238;28;20299;-52
2022/12/27 08:14:40;;;;;;;433.57;97.37;;;4.20;99.90;;;;;;5050469;28;20283;-52
2022/12/27 08:17:16;;;;;;;38.97;19.73;;;4.20;99.90;;;;;;5050844;28;20623;-53
2022/12/27 08:19:44;;;;;;;92.70;46.57;;;4.20;99.90;;;;;;5039734;28;20209;-53
2022/12/27 08:22:12;;;;;;;28.90;26.10;;;4.20;99.90;;;;;;5048203;28;20225;-52
2022/12/27 08:24:40;;;;;;;21.73;18.03;;;4.30;99.90;;;;;;5033689;28;20224;-53
2022/12/27 08:27:09;;;;;;;318.10;76.97;;;4.30;99.90;;;;;;5033376;28;20205;-52
2022/12/27 08:29:37;;;;;;;51.90;29.13;;;4.30;99.90;;;;;;5038268;28;20275;-51
2022/12/27 08:32:05;;;;;;;28.03;24.93;;;4.30;99.90;;;;;;5036095;28;21494;-53
2022/12/27 08:34:35;;;;;;;149.07;57.90;;;4.40;99.90;;;;;;5033038;28;20225;-53
2022/12/27 08:37:03;;;;;;;22.27;20.10;;;4.40;99.90;;;;;;5033536;28;20299;-52
2022/12/27 08:39:31;;;;;;;201.37;67.03;;;4.40;99.90;;;;;;5046768;28;20239;-51
2022/12/27 08:42:00;;;;;;;27.33;21.73;;;4.40;99.90;;;;;;5043718;28;20244;-53
2022/12/27 08:44:28;;;;;;;240.33;74.83;;;4.40;99.90;;;;;;5042295;28;20251;-53
2022/12/27 08:46:56;;;;;;;172.50;60.10;;;4.40;99.90;;;;;;5044356;28;20217;-51
2022/12/27 08:49:24;;;;;;;221.73;66.50;;;4.40;99.90;;;;;;5047289;28;20319;-52
2022/12/27 08:51:53;;;;;;;45.53;38.30;;;4.40;99.90;;;;;;5037283;28;20210;-52
2022/12/27 08:54:22;;;;;;;34.77;23.70;;;4.50;99.90;;;;;;5041385;28;20283;-52
2022/12/27 08:56:50;;;;;;;36.60;29.73;;;4.60;99.90;;;;;;5044441;28;20208;-52
2022/12/27 08:59:18;;;;;;;31.73;20.63;;;4.60;99.90;;;;;;5049718;28;20714;-52
2022/12/27 09:01:46;;;;;;;184.57;62.60;;;4.60;99.90;;;;;;5049641;28;20300;-52
2022/12/27 09:04:15;;;;;;;53.70;27.17;;;4.50;99.90;;;;;;5049517;28;20236;-51
2022/12/27 09:06:43;;;;;;;56.67;41.13;;;4.60;99.90;;;;;;5049568;28;20231;-52
2022/12/27 09:09:13;;;;;;;157.47;57.83;;;4.60;99.90;;;;;;5049361;28;20664;-52
2022/12/27 09:11:41;;;;;;;299.30;81.00;;;4.70;99.90;;;;;;5049966;28;20296;-52
2022/12/27 09:14:10;;;;;;;21.73;17.37;;;4.80;99.90;;;;;;5050060;28;20269;-52
2022/12/27 09:16:39;;;;;;;212.57;63.90;;;4.80;99.90;;;;;;5050213;28;20628;-52
2022/12/27 09:19:07;;;;;;;28.90;16.33;;;4.80;99.90;;;;;;5049924;28;20314;-52
2022/12/27 09:21:35;;;;;;;48.97;25.07;;;4.90;99.90;;;;;;5049593;28;20225;-51
2022/12/27 09:24:03;;;;;;;463.50;170.00;;;4.90;99.90;;;;;;5050195;28;20226;-52
2022/12/27 09:26:33;;;;;;;121.57;56.80;;;4.90;99.90;;;;;;5049777;28;20206;-51
2022/12/27 09:29:01;;;;;;;291.20;70.57;;;4.90;99.90;;;;;;5049842;28;20233;-52
2022/12/27 09:31:29;;;;;;;508.63;142.57;;;4.90;99.90;;;;;;5049825;28;20729;-52
2022/12/27 09:33:58;;;;;;;214.73;79.87;;;4.90;99.90;;;;;;5049242;28;20253;-50
2022/12/27 09:36:28;;;;;;;90.80;45.20;;;4.90;99.90;;;;;;5049623;28;20232;-52
2022/12/27 09:38:58;;;;;;;348.40;98.50;;;5.00;99.90;;;;;;5049706;28;20240;-53
2022/12/27 09:41:43;;;;;;;199.40;74.10;;;5.10;99.90;;;;;;5048898;28;20263;-51
2022/12/27 09:44:40;;;;;;;482.87;104.30;;;5.10;99.90;;;;;;5049471;28;20238;-52
2022/12/27 09:47:14;;;;;;;82.87;31.13;;;5.10;99.90;;;;;;5048705;28;20682;-53
2022/12/27 09:49:46;;;;;;;236.37;56.90;;;5.10;99.90;;;;;;5046893;28;20197;-52
2022/12/27 09:52:18;;;;;;;35.47;27.60;;;5.20;99.90;;;;;;5047550;28;20346;-51
2022/12/27 09:54:56;;;;;;;191.07;60.67;;;5.30;99.90;;;;;;5047959;28;20318;-52
2022/12/27 09:57:37;;;;;;;72.17;32.10;;;5.30;99.90;;;;;;5048076;28;20201;-52
2022/12/27 10:00:13;;;;;;;622.87;180.33;;;5.40;99.90;;;;;;5047807;28;20234;-52
2022/12/27 10:02:43;;;;;;;395.10;74.53;;;5.40;99.90;;;;;;5047772;28;20639;-52
2022/12/27 10:05:20;;;;;;;1998.40;375.63;;;5.40;99.90;;;;;;5048978;28;20731;-52
2022/12/27 10:08:17;;;;;;;381.03;80.90;;;5.50;99.90;;;;;;5048741;28;20217;-52
2022/12/27 10:10:53;;;;;;;376.93;88.77;;;5.60;99.90;;;;;;5036675;28;20275;-52
2022/12/27 10:13:41;;;;;;;968.30;142.13;;;5.70;99.90;;;;;;5042144;28;20228;-52
2022/12/27 10:16:22;;;;;;;1011.07;277.60;;;5.70;99.90;;;;;;5047194;28;20227;-53
2022/12/27 10:19:05;;;;;;;460.73;151.63;;;5.80;99.90;;;;;;5048065;28;20201;-53
2022/12/27 10:21:37;;;;;;;807.80;220.67;;;5.70;99.90;;;;;;5047913;28;20698;-52
2022/12/27 10:24:15;;;;;;;331.17;99.57;;;5.80;99.90;;;;;;5048979;28;20290;-52
2022/12/27 10:26:44;;;;;;;1824.50;297.47;;;5.80;99.90;;;;;;5049032;28;20263;-51
2022/12/27 10:29:20;;;;;;;192.37;63.03;;;5.90;99.90;;;;;;5049094;28;20210;-51
2022/12/27 10:31:48;;;;;;;506.97;123.27;;;5.80;99.90;;;;;;5048877;28;20204;-53
2022/12/27 10:34:22;;;;;;;117.13;51.73;;;5.90;99.90;;;;;;5047321;28;20303;-52
2022/12/27 10:36:52;;;;;;;1924.73;320.97;;;6.00;99.90;;;;;;5048831;28;20670;-52
2022/12/27 10:39:26;;;;;;;220.83;53.77;;;6.10;99.90;;;;;;5048245;28;20312;-52
2022/12/27 10:42:02;;;;;;;122.67;54.87;;;6.20;99.90;;;;;;5040388;28;20248;-52
2022/12/27 10:44:31;;;;;;;1420.40;260.90;;;6.30;99.90;;;;;;5048362;28;20227;-53
2022/12/27 10:47:00;;;;;;;1999.90;360.33;;;6.30;99.90;;;;;;5048232;28;20206;-52
2022/12/27 10:49:30;;;;;;;1062.53;235.40;;;6.20;99.90;;;;;;5042314;28;20295;-51
2022/12/27 10:52:06;;;;;;;930.77;230.00;;;6.10;99.90;;;;;;5046734;28;20215;-52
2022/12/27 10:54:35;;;;;;;652.30;158.60;;;6.10;99.90;;;;;;5051677;28;20221;-51
2022/12/27 10:57:18;;;;;;;877.83;225.07;;;6.20;99.90;;;;;;5051319;28;20268;-51
2022/12/27 11:00:13;;;;;;;882.70;272.90;;;6.40;99.90;;;;;;5052527;28;20217;-52
2022/12/27 11:02:49;;;;;;;301.23;83.07;;;6.60;99.90;;;;;;5051998;28;20243;-52
2022/12/27 11:05:22;;;;;;;866.87;232.77;;;6.70;99.90;;;;;;5052638;28;20229;-53
2022/12/27 11:07:50;;;;;;;146.13;40.13;;;6.70;99.90;;;;;;5052323;28;20249;-53
2022/12/27 11:10:20;;;;;;;1456.17;360.20;;;6.80;99.90;;;;;;5051568;28;20205;-52
2022/12/27 11:12:58;;;;;;;1010.40;322.40;;;6.70;99.90;;;;;;5044903;28;20252;-52
2022/12/27 11:15:30;;;;;;;477.10;116.87;;;6.60;99.90;;;;;;5051599;28;20204;-51
2022/12/27 11:18:01;;;;;;;597.47;140.60;;;6.50;99.90;;;;;;5052601;28;20229;-53
2022/12/27 11:20:31;;;;;;;835.33;189.70;;;6.60;99.90;;;;;;5052358;28;20206;-51
2022/12/27 11:23:02;;;;;;;163.63;55.60;;;6.70;99.90;;;;;;5051465;28;20635;-52
2022/12/27 11:25:31;;;;;;;171.13;49.63;;;6.70;99.90;;;;;;5052214;28;20912;-53
2022/12/27 11:28:03;;;;;;;1999.90;557.30;;;6.70;99.90;;;;;;5047763;28;20208;-51
2022/12/27 11:30:34;;;;;;;924.53;261.87;;;6.70;99.90;;;;;;5051606;28;20638;-52
2022/12/27 11:33:06;;;;;;;52.80;25.07;;;6.60;99.90;;;;;;5041222;28;20630;-52
2022/12/27 11:35:45;;;;;;;333.27;72.97;;;6.60;99.90;;;;;;5050778;28;20208;-52
2022/12/27 11:38:22;;;;;;;456.73;122.43;;;6.60;99.90;;;;;;5051065;28;20275;-53
2022/12/27 11:40:58;;;;;;;294.33;71.57;;;6.60;99.90;;;;;;5051695;28;20244;-52
2022/12/27 11:43:32;;;;;;;1389.70;279.57;;;6.60;99.90;;;;;;5051641;28;20269;-52
2022/12/27 11:46:05;;;;;;;354.20;91.33;;;6.70;99.90;;;;;;5051505;28;20247;-51
2022/12/27 11:48:38;;;;;;;87.80;41.73;;;6.80;99.90;;;;;;5052004;28;20498;-53
2022/12/27 11:51:40;;;;;;;217.83;66.83;;;6.80;99.90;;;;;;5050360;28;20211;-52
2022/12/27 11:54:22;;;;;;;107.00;49.70;;;6.80;99.90;;;;;;5051559;28;20283;-52
2022/12/27 11:56:55;;;;;;;423.37;147.57;;;6.80;99.90;;;;;;5051951;28;20229;-52
2022/12/27 11:59:47;;;;;;;1243.00;272.23;;;6.80;99.90;;;;;;5051705;28;20303;-53
2022/12/27 12:02:32;;;;;;;565.03;95.40;;;6.90;99.90;;;;;;5040517;28;20247;-52
2022/12/27 12:05:40;;;;;;;1020.83;227.20;;;7.00;99.90;;;;;;5049228;28;20271;-53
2022/12/27 12:08:26;;;;;;;940.77;197.53;;;7.20;99.90;;;;;;5051060;28;20205;-52
2022/12/27 12:11:03;;;;;;;1146.17;282.07;;;7.30;99.90;;;;;;5050741;28;20212;-52
2022/12/27 12:13:48;;;;;;;1434.97;234.10;;;7.40;99.90;;;;;;5037960;28;20271;-52
2022/12/27 12:16:39;;;;;;;158.40;62.37;;;7.50;99.90;;;;;;5050852;28;20236;-52
2022/12/27 12:19:21;;;;;;;202.57;81.83;;;7.60;99.90;;;;;;5041761;28;20303;-52
2022/12/27 12:22:01;;;;;;;433.47;129.03;;;7.40;99.90;;;;;;5043908;28;20226;-52
2022/12/27 12:24:54;;;;;;;322.33;114.70;;;7.30;99.90;;;;;;5051178;28;20535;-52
2022/12/27 12:27:41;;;;;;;1815.90;344.47;;;7.20;99.90;;;;;;5038862;28;20608;-53
2022/12/27 12:30:32;;;;;;;616.03;103.77;;;7.20;99.90;;;;;;5050733;28;20682;-53
2022/12/27 12:33:16;;;;;;;472.20;143.10;;;7.30;99.90;;;;;;5048484;28;20671;-53
2022/12/27 12:36:16;;;;;;;33.23;18.50;;;7.30;99.90;;;;;;5049492;28;20329;-53
2022/12/27 12:38:50;;;;;;;143.23;44.03;;;7.30;99.90;;;;;;5047824;28;20271;-52
2022/12/27 12:41:40;;;;;;;99.17;37.90;;;7.30;99.90;;;;;;5047940;28;20244;-51
2022/12/27 12:44:47;;;;;;;154.83;47.00;;;7.30;99.90;;;;;;5046590;28;20308;-53
2022/12/27 12:47:41;;;;;;;396.30;102.13;;;7.40;99.90;;;;;;5047800;28;20236;-53
2022/12/27 12:50:23;;;;;;;1045.80;221.80;;;7.40;99.90;;;;;;5047707;28;20233;-52
2022/12/27 12:53:08;;;;;;;981.07;186.33;;;7.30;99.90;;;;;;5039447;28;20289;-51
2022/12/27 12:55:54;;;;;;;148.47;42.60;;;7.30;99.90;;;;;;5050484;28;20208;-52
2022/12/27 12:58:46;;;;;;;348.50;98.90;;;7.40;99.90;;;;;;5050417;28;20307;-52
2022/12/27 13:01:41;;;;;;;156.23;56.70;;;7.50;99.90;;;;;;5050500;28;20240;-53
2022/12/27 13:04:29;;;;;;;630.03;109.40;;;7.60;99.90;;;;;;5050259;28;20236;-53
2022/12/27 13:07:20;;;;;;;1104.83;211.27;;;7.50;99.90;;;;;;5047743;28;20330;-52
2022/12/27 13:10:14;;;;;;;171.77;62.60;;;7.50;99.90;;;;;;5049907;28;20743;-52
2022/12/27 13:12:50;;;;;;;245.83;45.10;;;7.40;99.90;;;;;;5049119;28;20244;-52
2022/12/27 13:15:28;;;;;;;57.63;37.80;;;7.40;99.90;;;;;;5049392;28;20624;-51
2022/12/27 13:18:07;;;;;;;142.47;46.37;;;7.40;99.90;;;;;;5049783;28;20235;-52
2022/12/27 13:20:50;;;;;;;415.83;118.93;;;7.40;99.90;;;;;;5050177;28;20209;-52
2022/12/27 13:23:30;;;;;;;121.70;44.30;;;7.40;99.90;;;;;;5049699;28;20209;-52
2022/12/27 13:26:06;;;;;;;153.77;39.20;;;7.30;99.90;;;;;;5050104;28;20206;-50
2022/12/27 13:28:45;;;;;;;148.83;39.70;;;7.30;99.90;;;;;;5049511;28;20677;-52
2022/12/27 13:31:27;;;;;;;68.43;26.57;;;7.40;99.90;;;;;;5049501;28;20217;-53
2022/12/27 13:34:08;;;;;;;82.43;31.87;;;7.40;99.90;;;;;;5049495;28;20232;-52
2022/12/27 13:36:48;;;;;;;35.80;18.50;;;7.40;99.90;;;;;;5049567;28;20209;-53
2022/12/27 13:39:33;;;;;;;767.63;122.70;;;7.40;99.90;;;;;;5036006;28;20232;-52
2022/12/27 13:42:26;;;;;;;117.20;34.60;;;7.40;99.90;;;;;;5049133;28;20240;-52
2022/12/27 13:45:09;;;;;;;209.83;83.07;;;7.30;99.90;;;;;;5044632;28;20237;-51
2022/12/27 13:47:52;;;;;;;1074.37;327.40;;;7.20;99.90;;;;;;5041714;28;20225;-52
2022/12/27 13:50:56;;;;;;;46.33;21.27;;;7.20;99.90;;;;;;5038846;28;20745;-51
2022/12/27 13:53:55;;;;;;;488.87;140.50;;;7.20;99.90;;;;;;5034438;28;20325;-51
2022/12/27 13:56:35;;;;;;;280.57;102.87;;;7.20;99.90;;;;;;5037673;28;20297;-52
2022/12/27 13:59:55;;;;;;;536.30;176.23;;;7.10;99.90;;;;;;5041673;28;20229;-51
2022/12/27 14:02:51;;;;;;;507.40;105.40;;;7.00;99.90;;;;;;5039811;28;20676;-53
2022/12/27 14:05:51;;;;;;;956.80;215.07;;;6.90;99.90;;;;;;5041554;28;20225;-52
2022/12/27 14:08:27;;;;;;;762.43;159.73;;;6.90;99.90;;;;;;5046537;28;20220;-51
2022/12/27 14:10:56;;;;;;;1501.63;277.97;;;6.90;99.90;;;;;;5048766;28;20365;-51
2022/12/27 14:13:34;;;;;;;361.23;97.60;;;6.90;99.90;;;;;;5047952;28;20229;-52
2022/12/27 14:16:28;;;;;;;1454.20;257.17;;;6.90;99.90;;;;;;5040702;28;20289;-51
2022/12/27 14:19:11;;;;;;;922.00;149.13;;;6.90;99.90;;;;;;5033556;28;20241;-52
2022/12/27 14:22:05;;;;;;;1117.27;286.67;;;6.90;99.90;;;;;;5031793;28;20679;-51
2022/12/27 14:25:12;;;;;;;628.20;122.00;;;6.80;99.90;;;;;;5029331;28;20412;-52
2022/12/27 14:28:11;;;;;;;913.13;279.53;;;6.80;99.90;;;;;;5027762;28;20255;-52
2022/12/27 14:31:26;;;;;;;1478.87;284.37;;;6.80;99.90;;;;;;5035838;28;20214;-52
2022/12/27 14:34:20;;;;;;;1928.43;357.03;;;6.70;99.90;;;;;;5038392;28;20802;-51
2022/12/27 14:37:27;;;;;;;522.67;140.93;;;6.70;99.90;;;;;;5042687;28;20233;-52
2022/12/27 14:40:40;;;;;;;496.50;126.00;;;6.60;99.90;;;;;;5041104;28;20289;-52
2022/12/27 14:43:46;;;;;;;377.07;102.07;;;6.70;99.90;;;;;;5040513;28;20707;-53
2022/12/27 14:46:49;;;;;;;479.73;133.37;;;6.60;99.90;;;;;;5036011;28;20263;-52
2022/12/27 14:50:15;;;;;;;383.20;138.40;;;6.70;99.90;;;;;;5045751;28;20215;-51